Time;durP1;ratioP1;P1;durP2;ratioP2;P2;SDS_P1;SDS_P2;PMS_P1;PMS_P2;Temp;Humidity;BMP_temperature;BMP_pressure;BME280_temperature;BME280_humidity;BME280_pressure;Samples;Min_cycle;Max_cycle;Signal;HPM_P1;HPM_P2
2021/08/04 00:01:30;;;;;;;6.93;4.25;;;19.40;87.10;;;;;;6220434;23;20047;-88
2021/08/04 00:03:56;;;;;;;5.03;4.50;;;19.40;87.20;;;;;;6221262;23;20001;-88
2021/08/04 00:06:22;;;;;;;5.00;4.43;;;19.40;87.30;;;;;;6220419;23;20014;-88
2021/08/04 00:08:47;;;;;;;4.55;4.10;;;19.40;87.40;;;;;;6220492;23;20004;-88
2021/08/04 00:11:13;;;;;;;4.90;4.20;;;19.40;87.50;;;;;;6220385;23;20091;-87
2021/08/04 00:13:39;;;;;;;6.15;4.50;;;19.30;87.90;;;;;;6247098;23;20056;-88
2021/08/04 00:16:04;;;;;;;6.13;4.68;;;19.30;88.00;;;;;;6247261;23;20000;-87
2021/08/04 00:18:30;;;;;;;5.38;4.72;;;19.30;88.00;;;;;;6221439;23;20008;-88
2021/08/04 00:20:56;;;;;;;5.57;4.20;;;19.30;88.20;;;;;;6220354;23;20365;-88
2021/08/04 00:23:22;;;;;;;5.68;4.47;;;19.30;88.10;;;;;;6220367;23;20004;-88
2021/08/04 00:25:48;;;;;;;5.22;4.65;;;19.20;88.20;;;;;;6220947;23;20103;-88
2021/08/04 00:28:14;;;;;;;6.25;4.43;;;19.20;88.30;;;;;;6220535;23;20008;-88
2021/08/04 00:30:39;;;;;;;4.50;4.10;;;19.20;88.40;;;;;;6220706;23;20328;-87
2021/08/04 00:33:05;;;;;;;5.82;4.53;;;19.20;88.60;;;;;;6220379;23;20312;-88
2021/08/04 00:35:31;;;;;;;5.03;3.97;;;19.20;88.90;;;;;;6246557;23;20011;-87
2021/08/04 00:37:57;;;;;;;4.22;3.83;;;19.10;88.90;;;;;;6220406;23;20018;-88
2021/08/04 00:40:23;;;;;;;5.25;4.38;;;19.10;89.00;;;;;;6220089;23;20004;-88
2021/08/04 00:42:48;;;;;;;4.97;4.13;;;19.10;89.10;;;;;;6220167;23;20047;-88
2021/08/04 00:45:14;;;;;;;5.20;3.95;;;19.10;89.10;;;;;;6220122;23;20007;-88
2021/08/04 00:47:41;;;;;;;5.15;4.30;;;19.10;89.20;;;;;;6220199;23;19997;-88
2021/08/04 00:50:08;;;;;;;3.80;3.40;;;19.10;89.30;;;;;;6220161;23;20007;-88
2021/08/04 00:52:34;;;;;;;5.22;3.88;;;19.00;89.30;;;;;;6220221;23;20040;-88
2021/08/04 00:55:00;;;;;;;4.75;4.25;;;19.00;89.40;;;;;;6220279;23;20012;-88
2021/08/04 00:57:25;;;;;;;5.90;4.80;;;19.00;89.50;;;;;;6220165;23;20004;-87
2021/08/04 00:59:51;;;;;;;5.85;4.35;;;19.00;89.60;;;;;;6220164;23;20000;-88
2021/08/04 01:03:00;;;;;;;4.43;3.88;;;19.00;89.70;;;;;;6219692;23;20082;-88
2021/08/04 01:05:37;;;;;;;6.00;5.03;;;19.00;89.50;;;;;;6124538;23;20070;-88
2021/08/04 01:08:08;;;;;;;5.57;4.90;;;19.00;89.90;;;;;;6210606;23;20067;-87
2021/08/04 01:10:51;;;;;;;5.88;5.00;;;18.90;90.00;;;;;;5071074;28;20928;-88
2021/08/04 01:13:27;;;;;;;5.47;4.88;;;18.90;90.10;;;;;;5071335;28;20028;-87
2021/08/04 01:16:22;;;;;;;5.40;4.55;;;18.90;90.20;;;;;;5070354;28;20020;-88
2021/08/04 01:19:06;;;;;;;5.82;4.88;;;18.80;90.30;;;;;;5069756;28;20064;-87
2021/08/04 01:22:01;;;;;;;5.40;4.90;;;18.80;90.50;;;;;;5070757;28;20027;-87
2021/08/04 01:24:53;;;;;;;5.13;4.63;;;18.80;90.50;;;;;;5069798;28;20024;-87
2021/08/04 01:27:20;;;;;;;5.68;5.07;;;18.80;90.50;;;;;;5070051;28;20067;-87
2021/08/04 01:29:48;;;;;;;6.40;5.30;;;18.70;90.80;;;;;;5069817;28;20028;-87
2021/08/04 01:32:14;;;;;;;5.03;4.50;;;18.70;90.70;;;;;;5069795;28;20028;-87
2021/08/04 01:34:41;;;;;;;6.47;5.50;;;18.70;90.80;;;;;;5069887;28;20029;-88
2021/08/04 01:37:08;;;;;;;6.60;5.65;;;18.70;90.90;;;;;;5069923;28;20029;-87
2021/08/04 01:39:34;;;;;;;6.22;4.90;;;18.70;90.90;;;;;;5070767;28;20029;-88
2021/08/04 01:42:02;;;;;;;6.32;5.40;;;18.60;91.00;;;;;;5070130;28;20123;-87
2021/08/04 01:44:31;;;;;;;5.95;4.60;;;18.60;91.10;;;;;;5070113;28;20344;-87
2021/08/04 01:46:58;;;;;;;6.18;4.85;;;18.60;91.10;;;;;;5070172;28;20369;-87
2021/08/04 01:49:27;;;;;;;6.32;5.32;;;18.60;91.20;;;;;;5069611;28;20384;-87
2021/08/04 01:51:54;;;;;;;4.63;4.18;;;18.60;91.20;;;;;;5069519;28;20520;-87
2021/08/04 01:54:20;;;;;;;5.30;4.60;;;18.60;91.30;;;;;;5069518;28;20029;-88
2021/08/04 01:56:46;;;;;;;5.18;4.68;;;18.60;91.30;;;;;;5069631;28;20035;-88
2021/08/04 01:59:12;;;;;;;5.00;4.13;;;18.50;91.40;;;;;;5069359;28;20036;-87
2021/08/04 02:01:39;;;;;;;6.00;4.57;;;18.50;91.40;;;;;;5069621;28;20021;-88
2021/08/04 02:04:05;;;;;;;5.40;4.78;;;18.50;91.50;;;;;;5069294;28;20021;-87
2021/08/04 02:06:38;;;;;;;6.03;4.45;;;18.50;91.50;;;;;;5069248;28;20028;-88
2021/08/04 02:09:17;;;;;;;5.03;4.23;;;18.50;91.50;;;;;;5068780;28;20057;-88
2021/08/04 02:11:49;;;;;;;4.65;4.25;;;18.50;91.50;;;;;;5069208;28;20261;-87
2021/08/04 02:14:20;;;;;;;5.82;5.00;;;18.50;91.60;;;;;;5069221;28;20021;-87
2021/08/04 02:16:57;;;;;;;5.10;4.60;;;18.50;91.70;;;;;;5069520;28;20028;-88
2021/08/04 02:19:29;;;;;;;6.15;5.28;;;18.50;91.70;;;;;;5070619;28;20043;-87
2021/08/04 02:22:05;;;;;;;6.53;4.70;;;18.50;91.80;;;;;;5057295;28;20025;-88
2021/08/04 02:24:35;;;;;;;5.78;5.20;;;18.50;91.80;;;;;;5055753;28;20021;-87
2021/08/04 02:27:02;;;;;;;5.90;5.30;;;18.50;91.90;;;;;;5055684;28;20123;-87
2021/08/04 02:29:35;;;;;;;6.50;5.80;;;18.40;92.10;;;;;;5056358;28;20112;-87
2021/08/04 02:32:02;;;;;;;6.78;5.15;;;18.40;92.20;;;;;;5055546;28;20033;-87
2021/08/04 02:34:28;;;;;;;8.18;5.65;;;18.40;92.10;;;;;;5055033;28;20033;-87
2021/08/04 02:36:54;;;;;;;5.75;5.13;;;18.40;92.20;;;;;;5055389;28;20025;-88
2021/08/04 02:39:21;;;;;;;6.05;4.95;;;18.40;92.30;;;;;;5055392;28;20068;-88
2021/08/04 02:41:47;;;;;;;6.07;5.15;;;18.40;92.40;;;;;;5055322;28;20371;-87
2021/08/04 02:44:15;;;;;;;6.03;5.35;;;18.40;92.40;;;;;;5056612;28;20025;-87
2021/08/04 02:46:43;;;;;;;5.93;5.32;;;18.40;92.60;;;;;;5056457;28;20036;-87
2021/08/04 02:49:09;;;;;;;6.13;5.53;;;18.40;92.60;;;;;;5055142;28;20031;-87
2021/08/04 02:51:39;;;;;;;6.30;5.35;;;18.40;92.60;;;;;;5056452;28;20025;-88
2021/08/04 02:54:05;;;;;;;6.80;5.95;;;18.40;92.50;;;;;;5056378;28;20029;-87
2021/08/04 02:56:30;;;;;;;9.38;5.57;;;18.40;92.50;;;;;;5055770;28;20035;-88
2021/08/04 02:58:56;;;;;;;6.28;5.68;;;18.40;92.50;;;;;;5055005;28;20035;-87
2021/08/04 03:01:22;;;;;;;5.90;5.30;;;18.50;92.50;;;;;;5054893;28;20028;-87
2021/08/04 03:03:47;;;;;;;6.95;5.22;;;18.50;92.50;;;;;;5054826;28;20124;-87
2021/08/04 03:06:13;;;;;;;7.40;6.65;;;18.50;92.60;;;;;;5054873;28;20029;-87
2021/08/04 03:08:39;;;;;;;7.72;6.13;;;18.50;92.60;;;;;;5054913;28;20075;-88
2021/08/04 03:11:09;;;;;;;6.40;5.03;;;18.60;92.60;;;;;;5055211;28;20056;-87
2021/08/04 03:13:36;;;;;;;5.78;5.05;;;18.60;92.70;;;;;;5055260;28;20029;-87
2021/08/04 03:16:03;;;;;;;5.35;4.57;;;18.60;92.70;;;;;;5054750;28;20028;-87
2021/08/04 03:18:28;;;;;;;5.72;4.57;;;18.70;92.60;;;;;;5055800;28;20025;-88
2021/08/04 03:20:54;;;;;;;5.78;4.55;;;18.70;92.60;;;;;;5054508;28;20028;-87
2021/08/04 03:23:20;;;;;;;6.18;5.35;;;18.80;92.50;;;;;;5055181;28;20475;-87
2021/08/04 03:25:47;;;;;;;6.80;5.65;;;18.80;92.50;;;;;;5054437;28;20460;-87
2021/08/04 03:28:14;;;;;;;5.45;4.75;;;18.90;92.50;;;;;;5055971;28;20044;-87
2021/08/04 03:30:40;;;;;;;5.25;4.70;;;19.00;92.50;;;;;;5054554;28;20037;-87
2021/08/04 03:33:05;;;;;;;10.10;5.25;;;19.00;92.40;;;;;;5053545;28;20112;-87
2021/08/04 03:35:31;;;;;;;5.03;4.53;;;19.10;92.50;;;;;;5055890;28;20437;-87
2021/08/04 03:37:57;;;;;;;6.10;5.50;;;19.10;92.30;;;;;;5054134;28;20025;-87
2021/08/04 03:40:23;;;;;;;7.28;5.68;;;19.20;92.40;;;;;;5054348;28;20035;-87
2021/08/04 03:42:48;;;;;;;6.75;5.78;;;19.30;92.40;;;;;;5054183;28;20029;-87
2021/08/04 03:45:14;;;;;;;5.32;4.80;;;19.40;92.30;;;;;;5054693;28;20025;-87
2021/08/04 03:47:40;;;;;;;5.30;4.80;;;19.40;92.20;;;;;;5054458;28;20448;-87
2021/08/04 03:50:07;;;;;;;6.60;5.80;;;19.50;92.10;;;;;;5054664;28;20025;-87
2021/08/04 03:52:33;;;;;;;5.10;4.60;;;19.50;92.10;;;;;;5053985;28;20518;-87
2021/08/04 03:54:59;;;;;;;5.95;5.25;;;19.60;92.10;;;;;;5053933;28;20025;-87
2021/08/04 03:57:25;;;;;;;6.30;4.82;;;19.70;92.00;;;;;;5053777;28;20110;-87
2021/08/04 03:59:51;;;;;;;8.25;5.38;;;19.80;91.90;;;;;;5054223;28;20087;-87
2021/08/04 04:02:17;;;;;;;6.35;5.15;;;19.90;91.90;;;;;;5053550;28;20040;-87
2021/08/04 04:04:43;;;;;;;4.97;4.45;;;20.00;91.80;;;;;;5053509;28;20459;-87
2021/08/04 04:07:09;;;;;;;5.22;4.72;;;20.10;91.70;;;;;;5053750;28;20032;-87
2021/08/04 04:09:36;;;;;;;5.35;4.10;;;20.20;91.90;;;;;;5053248;28;20072;-88
2021/08/04 04:12:02;;;;;;;5.63;5.07;;;20.30;92.10;;;;;;5053417;28;20029;-87
2021/08/04 04:14:28;;;;;;;5.38;4.47;;;20.40;91.80;;;;;;5053520;28;20112;-87
2021/08/04 04:16:53;;;;;;;6.20;5.53;;;20.50;91.60;;;;;;5053433;28;20511;-87
2021/08/04 04:19:19;;;;;;;5.85;5.18;;;20.60;91.60;;;;;;5053501;28;20123;-87
2021/08/04 04:21:45;;;;;;;7.70;4.90;;;20.70;91.60;;;;;;5054217;28;20031;-87
2021/08/04 04:24:11;;;;;;;5.55;5.05;;;20.80;91.60;;;;;;5053380;28;20112;-89
2021/08/04 04:26:36;;;;;;;5.93;5.32;;;20.90;91.60;;;;;;5053373;28;20571;-88
2021/08/04 04:29:03;;;;;;;5.55;4.55;;;21.00;91.60;;;;;;5053623;28;20033;-88
2021/08/04 04:31:29;;;;;;;5.10;4.60;;;21.00;91.40;;;;;;5053201;28;20025;-88
2021/08/04 04:33:54;;;;;;;4.47;4.07;;;21.10;91.40;;;;;;5053156;28;20421;-88
2021/08/04 04:36:21;;;;;;;6.50;5.13;;;21.20;91.40;;;;;;5054036;28;20032;-88
2021/08/04 04:38:46;;;;;;;7.47;5.30;;;21.30;91.50;;;;;;5053403;28;20041;-89
2021/08/04 04:41:12;;;;;;;6.15;4.80;;;21.40;91.50;;;;;;5053849;28;20033;-88
2021/08/04 04:43:40;;;;;;;6.45;5.20;;;21.50;91.40;;;;;;5053050;28;20178;-89
2021/08/04 04:46:10;;;;;;;7.20;4.90;;;21.60;91.30;;;;;;5053608;28;20112;-89
2021/08/04 04:48:36;;;;;;;5.75;5.15;;;21.80;91.20;;;;;;5053095;28;20037;-88
2021/08/04 04:51:05;;;;;;;6.18;5.03;;;21.80;91.00;;;;;;5052649;28;20535;-88
2021/08/04 04:53:30;;;;;;;5.47;4.97;;;21.90;90.80;;;;;;5052667;28;20145;-89
2021/08/04 04:55:56;;;;;;;5.88;4.40;;;22.00;90.80;;;;;;5052659;28;20061;-88
2021/08/04 04:58:22;;;;;;;5.45;4.30;;;22.10;90.70;;;;;;5054355;28;20049;-88
2021/08/04 05:00:51;;;;;;;5.30;4.70;;;22.20;90.50;;;;;;5053135;28;20059;-89
2021/08/04 05:03:17;;;;;;;4.32;3.92;;;22.30;90.30;;;;;;5052424;28;20029;-89
2021/08/04 05:05:42;;;;;;;5.10;4.60;;;22.40;90.10;;;;;;5052636;28;20025;-89
2021/08/04 05:08:08;;;;;;;5.78;4.72;;;22.50;89.60;;;;;;5052939;28;20025;-88
2021/08/04 05:10:37;;;;;;;6.00;5.20;;;22.50;89.10;;;;;;5052613;28;20388;-89
2021/08/04 05:13:02;;;;;;;5.13;4.60;;;22.50;88.80;;;;;;5052780;28;20535;-88
2021/08/04 05:15:28;;;;;;;5.78;5.18;;;22.60;88.70;;;;;;5053898;28;20059;-89
2021/08/04 05:17:54;;;;;;;5.78;5.18;;;22.60;88.70;;;;;;5052630;28;20049;-88
2021/08/04 05:20:21;;;;;;;5.82;4.85;;;22.60;88.50;;;;;;5053487;28;20044;-88
2021/08/04 05:22:47;;;;;;;4.88;4.45;;;22.60;88.30;;;;;;5052942;28;20028;-88
2021/08/04 05:25:16;;;;;;;6.35;4.95;;;22.70;88.10;;;;;;5062670;28;20460;-87
2021/08/04 05:27:42;;;;;;;5.43;4.63;;;22.70;88.30;;;;;;5063582;28;20124;-88
2021/08/04 05:30:12;;;;;;;7.15;4.55;;;22.80;87.20;;;;;;5063653;28;20033;-88
2021/08/04 05:32:38;;;;;;;4.45;3.83;;;23.10;86.60;;;;;;5062148;28;20116;-89
2021/08/04 05:35:05;;;;;;;5.32;3.75;;;23.30;85.40;;;;;;5062598;28;20029;-88
2021/08/04 05:37:31;;;;;;;5.85;4.63;;;23.50;83.90;;;;;;5053067;28;20025;-88
2021/08/04 05:39:59;;;;;;;4.18;3.78;;;23.70;81.90;;;;;;5051627;28;20455;-88
2021/08/04 05:42:24;;;;;;;4.50;4.10;;;23.70;80.90;;;;;;5052473;28;20025;-89
2021/08/04 05:44:50;;;;;;;5.32;3.75;;;23.70;80.80;;;;;;5054178;28;20025;-88
2021/08/04 05:47:16;;;;;;;3.83;3.42;;;23.80;80.20;;;;;;5052264;28;20024;-88
2021/08/04 05:49:42;;;;;;;3.97;3.45;;;23.80;79.20;;;;;;5051639;28;20067;-88
2021/08/04 05:52:08;;;;;;;5.03;3.63;;;23.90;78.80;;;;;;5053618;28;20054;-88
2021/08/04 05:54:34;;;;;;;3.92;3.53;;;24.00;78.80;;;;;;5051564;28;20048;-89
2021/08/04 05:56:59;;;;;;;4.30;3.65;;;24.00;77.80;;;;;;5055555;28;20164;-88
2021/08/04 05:59:25;;;;;;;3.30;3.00;;;24.10;77.20;;;;;;5056601;28;20111;-88
2021/08/04 06:01:51;;;;;;;3.42;3.13;;;24.10;77.10;;;;;;5057046;28;20025;-88
2021/08/04 06:04:17;;;;;;;3.55;3.25;;;24.20;76.40;;;;;;5056099;28;20059;-88
2021/08/04 06:06:42;;;;;;;3.60;3.30;;;24.30;75.50;;;;;;5055871;28;20506;-88
2021/08/04 06:09:08;;;;;;;3.72;3.20;;;24.30;74.80;;;;;;5054325;28;20072;-88
2021/08/04 06:11:34;;;;;;;3.00;2.70;;;24.30;74.80;;;;;;5055976;28;20029;-88
2021/08/04 06:14:00;;;;;;;3.22;2.90;;;24.40;74.40;;;;;;5054545;28;20092;-88
2021/08/04 06:16:25;;;;;;;3.35;3.05;;;24.50;74.50;;;;;;5056741;28;20403;-87
2021/08/04 06:18:51;;;;;;;3.50;3.20;;;24.60;74.50;;;;;;5058433;28;20040;-88
2021/08/04 06:21:17;;;;;;;2.95;2.67;;;24.70;73.00;;;;;;5058511;28;20143;-88
2021/08/04 06:23:47;;;;;;;3.42;3.13;;;24.70;72.80;;;;;;5055103;28;20029;-87
2021/08/04 06:26:14;;;;;;;3.30;3.00;;;24.80;73.00;;;;;;5057074;28;20049;-87
2021/08/04 06:28:40;;;;;;;3.08;2.78;;;24.90;72.80;;;;;;5054534;28;20215;-88
2021/08/04 06:31:05;;;;;;;3.05;2.78;;;25.10;72.20;;;;;;5054646;28;20510;-88
2021/08/04 06:33:31;;;;;;;3.15;2.92;;;25.20;71.70;;;;;;5056263;28;20383;-88
2021/08/04 06:35:57;;;;;;;3.28;2.83;;;25.30;71.40;;;;;;5055438;28;20086;-89
2021/08/04 06:38:23;;;;;;;3.63;2.30;;;25.40;70.90;;;;;;5054529;28;20029;-87
2021/08/04 06:40:48;;;;;;;2.65;2.45;;;25.60;70.50;;;;;;5054359;28;20380;-87
2021/08/04 06:43:15;;;;;;;4.25;2.65;;;25.70;70.10;;;;;;5055053;28;20203;-88
2021/08/04 06:45:41;;;;;;;3.42;3.13;;;25.90;69.80;;;;;;5054473;28;20021;-87
2021/08/04 06:48:10;;;;;;;3.85;3.10;;;26.00;69.30;;;;;;5053969;28;20029;-88
2021/08/04 06:50:37;;;;;;;2.78;2.58;;;26.10;69.00;;;;;;5053713;28;20039;-87
2021/08/04 06:53:03;;;;;;;3.75;2.92;;;26.20;68.70;;;;;;5054736;28;20409;-88
2021/08/04 06:55:29;;;;;;;3.47;3.15;;;26.30;68.20;;;;;;5054482;28;20040;-88
2021/08/04 06:57:57;;;;;;;4.00;3.38;;;26.30;67.70;;;;;;5053735;28;20403;-88
2021/08/04 07:00:22;;;;;;;3.40;3.08;;;26.30;67.50;;;;;;5054961;28;20539;-88
2021/08/04 07:02:49;;;;;;;3.30;3.00;;;26.30;67.40;;;;;;5056047;28;20115;-88
2021/08/04 07:05:17;;;;;;;3.25;2.95;;;26.30;67.30;;;;;;5057576;28;20436;-88
2021/08/04 07:07:44;;;;;;;3.60;2.80;;;26.40;67.30;;;;;;5054820;28;20053;-88
2021/08/04 07:10:11;;;;;;;3.28;2.88;;;26.50;67.30;;;;;;5053729;28;20496;-88
2021/08/04 07:12:37;;;;;;;3.00;2.80;;;26.60;67.10;;;;;;5055357;28;20037;-88
2021/08/04 07:15:03;;;;;;;3.38;3.08;;;26.60;67.30;;;;;;5055163;28;20032;-88
2021/08/04 07:17:29;;;;;;;3.08;2.85;;;26.70;66.10;;;;;;5053934;28;20025;-88
2021/08/04 07:19:55;;;;;;;2.60;2.40;;;26.80;65.40;;;;;;5054611;28;20467;-88
2021/08/04 07:22:23;;;;;;;3.17;2.97;;;26.80;65.20;;;;;;5054527;28;20079;-87
2021/08/04 07:24:49;;;;;;;3.13;2.83;;;26.80;64.80;;;;;;5054161;28;20025;-88
2021/08/04 07:27:18;;;;;;;2.40;2.20;;;27.00;64.50;;;;;;5054305;28;20128;-88
2021/08/04 07:29:44;;;;;;;3.20;2.55;;;27.00;63.80;;;;;;5053935;28;20033;-88
2021/08/04 07:32:09;;;;;;;2.53;2.33;;;27.10;63.00;;;;;;5054051;28;20021;-88
2021/08/04 07:34:35;;;;;;;2.65;2.45;;;27.10;63.00;;;;;;5060014;28;20070;-88
2021/08/04 07:37:02;;;;;;;2.65;2.20;;;27.20;62.80;;;;;;5063080;28;20064;-88
2021/08/04 07:39:28;;;;;;;2.60;2.40;;;27.30;62.60;;;;;;5064402;28;20025;-88
2021/08/04 07:41:54;;;;;;;2.53;2.33;;;27.40;62.30;;;;;;5062092;28;20025;-88
2021/08/04 07:44:19;;;;;;;2.03;1.92;;;27.40;61.60;;;;;;5059718;28;20070;-90
2021/08/04 07:46:45;;;;;;;2.50;2.30;;;27.50;61.30;;;;;;5054527;28;20025;-88
2021/08/04 07:49:13;;;;;;;2.40;2.20;;;27.50;60.80;;;;;;5053198;28;20041;-88
2021/08/04 07:51:39;;;;;;;2.30;2.10;;;27.50;60.50;;;;;;5054229;28;20036;-88
2021/08/04 07:54:05;;;;;;;3.47;2.72;;;27.60;60.40;;;;;;5053319;28;20025;-88
2021/08/04 07:56:31;;;;;;;3.28;2.10;;;27.60;60.20;;;;;;5054807;28;20025;-87
2021/08/04 07:59:02;;;;;;;2.35;2.15;;;27.70;59.80;;;;;;5052710;28;20028;-88
2021/08/04 08:01:29;;;;;;;6.00;2.58;;;27.70;59.40;;;;;;5053207;28;20028;-88
2021/08/04 08:03:55;;;;;;;3.50;2.10;;;27.70;59.30;;;;;;5052861;28;20040;-88
2021/08/04 08:06:20;;;;;;;2.25;2.15;;;27.70;58.40;;;;;;5052585;28;20025;-89
2021/08/04 08:08:46;;;;;;;6.30;2.55;;;27.70;58.60;;;;;;5052464;28;20063;-88
2021/08/04 08:11:15;;;;;;;3.78;2.67;;;27.70;58.50;;;;;;5052864;28;20384;-88
2021/08/04 08:13:40;;;;;;;2.45;2.20;;;27.70;58.40;;;;;;5052904;28;20120;-88
2021/08/04 08:16:06;;;;;;;2.60;2.40;;;27.80;58.60;;;;;;5052968;28;20067;-88
2021/08/04 08:18:32;;;;;;;2.92;2.60;;;27.80;57.50;;;;;;5052257;28;20410;-88
2021/08/04 08:20:58;;;;;;;2.80;2.50;;;27.80;57.90;;;;;;5053773;28;20021;-88
2021/08/04 08:23:23;;;;;;;2.55;2.25;;;27.80;57.60;;;;;;5054631;28;20053;-88
2021/08/04 08:25:49;;;;;;;2.78;2.53;;;27.90;57.60;;;;;;5052636;28;20367;-87
2021/08/04 08:28:16;;;;;;;3.05;2.35;;;27.90;57.30;;;;;;5054221;28;20407;-87
2021/08/04 08:30:42;;;;;;;2.50;2.30;;;28.00;56.90;;;;;;5053385;28;20033;-87
2021/08/04 08:33:08;;;;;;;2.63;2.42;;;28.10;56.40;;;;;;5055988;28;20036;-87
2021/08/04 08:35:34;;;;;;;2.90;2.60;;;28.10;56.10;;;;;;5055381;28;20452;-88
2021/08/04 08:38:00;;;;;;;2.30;2.10;;;28.20;54.90;;;;;;5055230;28;20553;-87
2021/08/04 08:40:27;;;;;;;2.40;2.20;;;28.10;54.90;;;;;;5056023;28;20025;-87
2021/08/04 08:42:55;;;;;;;2.60;2.40;;;28.10;54.80;;;;;;5054321;28;20025;-88
2021/08/04 08:45:22;;;;;;;2.47;2.28;;;28.10;54.20;;;;;;5052044;28;20880;-89
2021/08/04 08:47:48;;;;;;;2.30;2.10;;;28.10;54.50;;;;;;5042155;28;20492;-88
2021/08/04 08:50:15;;;;;;;2.83;1.80;;;28.20;54.30;;;;;;5043702;28;20029;-89
2021/08/04 08:52:43;;;;;;;2.92;2.53;;;28.30;54.00;;;;;;5042594;28;20026;-88
2021/08/04 08:55:11;;;;;;;2.45;2.05;;;28.30;53.70;;;;;;5051562;28;20468;-88
2021/08/04 08:57:38;;;;;;;2.17;1.98;;;28.50;53.60;;;;;;5053797;28;20040;-88
2021/08/04 09:00:05;;;;;;;2.35;2.15;;;28.60;52.90;;;;;;5041085;28;20037;-88
2021/08/04 09:02:31;;;;;;;2.58;2.38;;;28.60;52.50;;;;;;5032973;28;20025;-88
2021/08/04 09:04:59;;;;;;;2.22;2.13;;;28.60;52.10;;;;;;5039779;28;20104;-87
2021/08/04 09:07:36;;;;;;;2.30;2.20;;;28.60;52.20;;;;;;5037874;28;20425;-88
2021/08/04 09:10:36;;;;;;;2.72;2.53;;;28.70;52.00;;;;;;5033218;28;20326;-88
2021/08/04 09:13:07;;;;;;;2.58;2.38;;;28.70;51.10;;;;;;5035701;28;20035;-88
2021/08/04 09:15:42;;;;;;;2.20;2.03;;;28.70;51.20;;;;;;5038464;28;20039;-89
2021/08/04 09:18:15;;;;;;;2.42;2.22;;;28.60;51.20;;;;;;5053175;28;20025;-91
2021/08/04 09:21:08;;;;;;;2.03;1.88;;;28.50;51.40;;;;;;5039411;28;20038;-88
2021/08/04 09:23:46;;;;;;;1.85;1.75;;;28.50;50.70;;;;;;5049839;28;20040;-88
2021/08/04 09:26:14;;;;;;;3.08;2.10;;;28.60;51.40;;;;;;5049165;28;20427;-88
2021/08/04 09:29:10;;;;;;;3.03;2.00;;;28.60;51.10;;;;;;5047803;28;20022;-87
2021/08/04 09:31:56;;;;;;;2.15;2.00;;;28.70;50.60;;;;;;5036248;28;20540;-89
2021/08/04 09:34:35;;;;;;;2.25;2.05;;;28.80;50.90;;;;;;5039100;28;20037;-88
2021/08/04 09:37:21;;;;;;;2.10;1.90;;;28.80;50.10;;;;;;5038154;28;20045;-88
2021/08/04 09:40:08;;;;;;;;;;;;;;;;;;;;;
2021/08/04 09:43:01;;;;;;;2.45;2.15;;;28.80;51.00;;;;;;5065258;28;20068;-87
2021/08/04 09:45:51;;;;;;;2.55;2.35;;;28.80;50.50;;;;;;5046846;28;20033;-90
2021/08/04 09:48:25;;;;;;;2.90;2.08;;;28.80;50.10;;;;;;5063001;28;20037;-90
2021/08/04 09:51:03;;;;;;;4.07;2.47;;;28.90;51.20;;;;;;5041909;28;20039;-90
2021/08/04 09:53:48;;;;;;;;;;;;;;;;;;;;;
2021/08/04 09:56:22;;;;;;;3.17;2.50;;;29.10;50.00;;;;;;5058102;28;20025;-90
2021/08/04 09:59:05;;;;;;;;;;;;;;;;;;;;;
2021/08/04 10:01:40;;;;;;;2.55;2.35;;;29.30;49.60;;;;;;5039266;28;20120;-89
2021/08/04 10:04:10;;;;;;;2.78;2.58;;;29.40;49.60;;;;;;5050679;28;20029;-88
2021/08/04 10:06:44;;;;;;;2.65;2.42;;;29.50;49.10;;;;;;5055296;28;20043;-89
2021/08/04 10:09:19;;;;;;;3.35;2.60;;;29.60;49.00;;;;;;5035951;28;20041;-88
2021/08/04 10:11:49;;;;;;;5.35;2.63;;;29.60;48.40;;;;;;5061630;28;20025;-89
2021/08/04 10:14:27;;;;;;;2.78;2.45;;;29.50;48.50;;;;;;5078795;28;20036;-88
2021/08/04 10:16:54;;;;;;;2.85;2.65;;;29.50;48.50;;;;;;5069090;28;20025;-89
2021/08/04 10:19:22;;;;;;;4.70;2.50;;;29.50;48.20;;;;;;5055901;28;20029;-89
2021/08/04 10:22:01;;;;;;;2.92;2.40;;;29.60;48.10;;;;;;5056113;28;20135;-89
2021/08/04 10:24:49;;;;;;;;;;;;;;;;;;;;;
2021/08/04 10:27:31;;;;;;;5.43;2.50;;;29.80;47.30;;;;;;5055226;28;20368;-89
2021/08/04 10:29:59;;;;;;;2.55;2.35;;;29.90;47.10;;;;;;5040678;28;20049;-89
2021/08/04 10:32:32;;;;;;;2.45;2.22;;;30.10;47.40;;;;;;5055643;28;20048;-88
2021/08/04 10:35:04;;;;;;;;;;;30.20;46.40;;;;;;5057135;28;20029;-89
2021/08/04 10:37:40;;;;;;;2.90;2.17;;;30.10;44.80;;;;;;5056908;28;20020;-88
2021/08/04 10:40:09;;;;;;;3.05;2.40;;;30.10;45.70;;;;;;5034576;28;20044;-90
2021/08/04 10:42:45;;;;;;;2.90;2.40;;;30.10;45.60;;;;;;5033657;28;20187;-89
2021/08/04 10:45:27;;;;;;;2.80;2.47;;;30.00;45.20;;;;;;5034550;28;20036;-89
2021/08/04 10:48:23;;;;;;;7.40;2.33;;;30.00;44.40;;;;;;5035005;28;20125;-89
2021/08/04 10:51:21;;;;;;;2.28;2.17;;;29.90;44.00;;;;;;5041906;28;20044;-90
2021/08/04 10:54:13;;;;;;;2.55;2.38;;;29.90;44.30;;;;;;5040217;28;20036;-90
2021/08/04 10:56:53;;;;;;;2.45;2.25;;;29.90;45.00;;;;;;5054925;28;20388;-89
2021/08/04 10:59:43;;;;;;;2.60;2.38;;;29.90;45.40;;;;;;5043767;28;20029;-89
2021/08/04 11:02:15;;;;;;;2.15;2.05;;;29.90;45.20;;;;;;5034874;28;20028;-90
2021/08/04 11:05:16;;;;;;;;;;;;;;;;;;;;;
2021/08/04 11:08:38;;;;;;;2.45;2.25;;;29.90;45.20;;;;;;5036973;28;20113;-90
2021/08/04 11:11:47;;;;;;;2.08;1.90;;;29.90;45.00;;;;;;5037989;28;20068;-91
2021/08/04 11:14:53;;;;;;;3.55;2.28;;;29.90;45.30;;;;;;5037009;28;20525;-90
2021/08/04 11:17:27;;;;;;;1.83;1.73;;;29.90;45.20;;;;;;5037478;28;20037;-90
2021/08/04 11:20:09;;;;;;;2.13;1.98;;;29.90;45.80;;;;;;5035859;28;20037;-89
2021/08/04 11:22:35;;;;;;;2.00;1.90;;;30.00;45.70;;;;;;5041605;28;20471;-88
2021/08/04 11:25:28;;;;;;;2.17;2.00;;;30.00;45.80;;;;;;5045310;28;20025;-88
2021/08/04 11:28:11;;;;;;;2.00;1.85;;;30.00;45.60;;;;;;5060694;28;20021;-89
2021/08/04 11:30:48;;;;;;;2.38;2.17;;;30.00;46.30;;;;;;5036678;28;20098;-91
2021/08/04 11:33:25;;;;;;;2.83;2.17;;;30.10;45.80;;;;;;5036034;28;20033;-91
2021/08/04 14:51:13;;;;;;;;;;;;;;;;;;;;;
2021/08/04 17:07:23;;;;;;;6.55;2.63;;;27.70;50.70;;;;;;4932873;29;20047;-93
2021/08/04 17:17:29;;;;;;;3.10;2.78;;;27.10;52.80;;;;;;4879434;29;20170;-94
2021/08/04 17:20:53;;;;;;;2.67;2.42;;;27.00;53.00;;;;;;4880199;29;20037;-92
2021/08/04 17:33:33;;;;;;;4.10;2.72;;;26.30;54.80;;;;;;4843068;29;20038;-94
2021/08/04 17:36:06;;;;;;;3.03;2.65;;;26.20;54.70;;;;;;4866331;29;20051;-93
2021/08/04 17:38:40;;;;;;;4.05;2.75;;;26.10;55.00;;;;;;4925250;29;20095;-93
2021/08/04 17:41:26;;;;;;;;;;;26.00;55.50;;;;;;4921300;29;20087;-93
2021/08/04 17:48:36;;;;;;;;;;;;;;;;;;;;;
2021/08/04 18:44:18;;;;;;;;;;;;;;;;;;;;;
2021/08/04 18:50:56;;;;;;;5.32;4.47;;;24.60;59.70;;;;;;4706052;30;20081;-91
